Time;durP1;ratioP1;P1;durP2;ratioP2;P2;SDS_P1;SDS_P2;PMS_P1;PMS_P2;Temp;Humidity;BMP_temperature;BMP_pressure;BME280_temperature;BME280_humidity;BME280_pressure;Samples;Min_cycle;Max_cycle;Signal;HPM_P1;HPM_P2
2023/03/15 00:00:41;;;;;;;9.30;1.83;;;2.80;99.90;;;;;;4962099;28;20051;-73
2023/03/15 00:03:07;;;;;;;11.23;2.13;;;2.80;99.90;;;;;;4984952;28;20050;-73
2023/03/15 00:05:33;;;;;;;6.95;1.30;;;2.80;99.90;;;;;;4992174;28;20073;-73
2023/03/15 00:07:59;;;;;;;12.90;2.67;;;2.80;99.90;;;;;;4961821;28;20471;-73
2023/03/15 00:10:25;;;;;;;11.82;1.70;;;2.80;99.90;;;;;;4988957;28;20042;-74
2023/03/15 00:12:51;;;;;;;9.63;2.17;;;2.80;99.90;;;;;;4991791;28;20061;-73
2023/03/15 00:15:17;;;;;;;13.35;2.38;;;2.80;99.90;;;;;;4999103;28;20042;-73
2023/03/15 00:17:43;;;;;;;15.13;2.17;;;2.80;99.90;;;;;;4993136;28;20051;-73
2023/03/15 00:20:10;;;;;;;7.78;1.77;;;2.70;99.90;;;;;;4985533;28;20047;-73
2023/03/15 00:22:36;;;;;;;13.70;2.60;;;2.70;99.90;;;;;;4988308;28;20046;-73
2023/03/15 00:25:02;;;;;;;6.55;1.58;;;2.70;99.90;;;;;;4977544;28;20050;-74
2023/03/15 00:27:28;;;;;;;10.57;2.40;;;2.70;99.90;;;;;;4957634;28;20168;-74
2023/03/15 00:29:54;;;;;;;13.70;1.90;;;2.70;99.90;;;;;;4943689;28;20050;-73
2023/03/15 00:32:20;;;;;;;8.73;1.83;;;2.70;99.90;;;;;;4993177;28;20046;-73
2023/03/15 00:34:47;;;;;;;12.02;1.92;;;2.80;99.90;;;;;;4974094;28;20081;-73
2023/03/15 00:37:18;;;;;;;10.30;1.85;;;2.60;99.90;;;;;;4958179;28;20105;-73
2023/03/15 00:39:47;;;;;;;11.20;2.08;;;2.60;99.90;;;;;;4960286;28;20705;-73
2023/03/15 00:42:16;;;;;;;13.88;2.10;;;2.60;99.90;;;;;;4957829;28;20046;-74
2023/03/15 00:44:43;;;;;;;7.45;1.70;;;2.70;99.90;;;;;;4961561;28;20112;-73
2023/03/15 00:47:10;;;;;;;23.23;2.30;;;2.70;99.90;;;;;;4964035;28;20050;-73
2023/03/15 00:49:35;;;;;;;15.90;1.80;;;2.60;99.90;;;;;;4975181;28;20050;-73
2023/03/15 00:52:01;;;;;;;12.38;1.95;;;2.60;99.90;;;;;;4992444;28;20039;-73
2023/03/15 00:54:27;;;;;;;7.57;1.88;;;2.60;99.90;;;;;;4991779;28;20050;-72
2023/03/15 00:56:52;;;;;;;11.73;2.20;;;2.60;99.90;;;;;;4974592;28;20541;-73
2023/03/15 00:59:18;;;;;;;9.95;1.80;;;2.60;99.90;;;;;;4994086;28;20675;-72
2023/03/15 01:01:44;;;;;;;10.02;2.08;;;2.70;99.90;;;;;;4960882;28;20049;-74
2023/03/15 01:04:10;;;;;;;10.23;1.60;;;2.70;99.90;;;;;;4974614;28;20055;-73
2023/03/15 01:06:36;;;;;;;14.30;1.92;;;2.70;99.90;;;;;;4957080;28;20057;-74
2023/03/15 01:09:02;;;;;;;11.05;1.92;;;2.70;99.90;;;;;;4971675;28;20058;-75
2023/03/15 01:11:28;;;;;;;9.30;2.20;;;2.70;99.90;;;;;;4976683;28;20042;-73
2023/03/15 01:13:55;;;;;;;16.27;1.80;;;2.70;99.90;;;;;;4988936;28;20142;-73
2023/03/15 01:16:21;;;;;;;16.77;2.97;;;2.70;99.90;;;;;;4941219;28;20046;-72
2023/03/15 01:18:47;;;;;;;14.65;2.45;;;2.70;99.90;;;;;;4973552;28;20464;-73
2023/03/15 01:21:13;;;;;;;11.20;1.85;;;2.70;99.90;;;;;;4944715;28;20058;-73
2023/03/15 01:23:39;;;;;;;11.10;1.92;;;2.60;99.90;;;;;;4943728;28;20042;-73
2023/03/15 01:26:06;;;;;;;19.35;2.03;;;2.60;99.90;;;;;;4974080;28;20058;-73
2023/03/15 01:28:31;;;;;;;8.60;1.58;;;2.60;99.90;;;;;;4962619;28;20050;-73
2023/03/15 01:30:57;;;;;;;13.02;1.73;;;2.70;99.90;;;;;;4963433;28;20452;-73
2023/03/15 01:33:23;;;;;;;15.13;2.03;;;2.60;99.90;;;;;;4940771;28;20121;-73
2023/03/15 01:36:01;;;;;;;15.38;2.08;;;2.70;99.90;;;;;;4938840;28;20053;-73
2023/03/15 01:38:26;;;;;;;13.10;2.17;;;2.70;99.90;;;;;;4973102;28;20050;-73
2023/03/15 01:40:52;;;;;;;12.95;2.05;;;2.60;99.90;;;;;;4930300;28;20054;-73
2023/03/15 01:43:24;;;;;;;7.35;1.63;;;2.60;99.90;;;;;;4979530;28;20047;-75
2023/03/15 01:46:02;;;;;;;12.82;2.63;;;2.60;99.90;;;;;;4962220;28;20694;-73
2023/03/15 01:48:33;;;;;;;11.07;2.28;;;2.60;99.90;;;;;;4947200;28;20390;-73
2023/03/15 01:51:01;;;;;;;10.07;1.60;;;2.70;99.90;;;;;;4977658;28;20078;-73
2023/03/15 01:53:27;;;;;;;10.13;2.28;;;2.80;99.90;;;;;;4951134;28;20125;-73
2023/03/15 01:55:52;;;;;;;23.30;2.33;;;2.70;99.90;;;;;;4964372;28;20531;-73
2023/03/15 01:58:20;;;;;;;11.27;2.17;;;2.80;99.90;;;;;;4960205;28;20055;-73
2023/03/15 02:00:46;;;;;;;10.63;1.97;;;2.90;99.90;;;;;;4972327;28;20365;-73
2023/03/15 02:03:17;;;;;;;8.98;1.92;;;2.90;99.90;;;;;;4954284;28;20494;-74
2023/03/15 02:05:45;;;;;;;10.07;1.92;;;3.00;99.90;;;;;;4966676;28;20141;-73
2023/03/15 02:08:10;;;;;;;13.07;2.20;;;2.90;99.90;;;;;;4926428;28;20531;-73
2023/03/15 02:10:39;;;;;;;12.05;1.90;;;3.00;99.90;;;;;;4971484;28;20053;-73
2023/03/15 02:13:05;;;;;;;9.10;1.83;;;3.10;99.90;;;;;;4951048;28;20442;-73
2023/03/15 02:15:31;;;;;;;17.20;2.78;;;3.00;99.90;;;;;;4969038;28;20070;-72
2023/03/15 02:17:56;;;;;;;13.90;1.85;;;3.10;99.90;;;;;;4945402;28;20035;-73
2023/03/15 02:20:40;;;;;;;7.93;1.70;;;3.10;99.90;;;;;;4985428;28;20050;-74
2023/03/15 02:23:08;;;;;;;10.75;1.58;;;3.10;99.90;;;;;;4980968;28;20054;-73
2023/03/15 02:25:37;;;;;;;7.63;2.57;;;3.10;99.90;;;;;;4971102;28;20046;-73
2023/03/15 02:28:03;;;;;;;12.23;2.00;;;3.10;99.90;;;;;;4980637;28;20057;-73
2023/03/15 02:30:29;;;;;;;9.18;1.67;;;3.10;99.90;;;;;;4965705;28;20490;-74
2023/03/15 02:32:56;;;;;;;15.93;1.90;;;3.10;99.90;;;;;;4958751;28;20062;-72
2023/03/15 02:35:30;;;;;;;10.07;1.85;;;3.20;99.90;;;;;;4967278;28;20038;-74
2023/03/15 02:37:56;;;;;;;15.70;2.00;;;3.10;99.90;;;;;;4974819;28;20042;-74
2023/03/15 02:40:26;;;;;;;11.63;1.58;;;3.20;99.90;;;;;;4990540;28;20681;-75
2023/03/15 02:43:13;;;;;;;13.05;2.50;;;3.20;99.90;;;;;;4942989;28;20685;-73
2023/03/15 02:45:39;;;;;;;7.93;1.60;;;3.20;99.90;;;;;;4958988;28;20483;-71
2023/03/15 02:48:05;;;;;;;12.60;2.17;;;3.20;99.90;;;;;;4946625;28;20050;-74
2023/03/15 02:50:31;;;;;;;11.75;2.58;;;3.20;99.90;;;;;;4962003;28;20047;-71
2023/03/15 02:52:57;;;;;;;13.13;1.77;;;3.30;99.90;;;;;;4956277;28;20043;-72
2023/03/15 02:55:22;;;;;;;12.73;2.10;;;3.20;99.90;;;;;;4954914;28;20462;-73
2023/03/15 02:57:48;;;;;;;12.73;2.30;;;3.30;99.90;;;;;;4984705;28;20039;-73
2023/03/15 03:00:14;;;;;;;9.93;1.92;;;3.10;99.90;;;;;;4955888;28;20054;-74
2023/03/15 03:02:41;;;;;;;9.73;1.77;;;3.20;99.90;;;;;;4947738;28;20051;-73
2023/03/15 03:05:07;;;;;;;10.43;2.00;;;3.10;99.90;;;;;;4975856;28;20157;-73
2023/03/15 03:07:34;;;;;;;11.23;1.70;;;3.10;99.90;;;;;;4956878;28;20125;-73
2023/03/15 03:10:00;;;;;;;11.13;2.83;;;3.10;99.90;;;;;;4966974;28;20050;-73
2023/03/15 03:12:26;;;;;;;7.93;1.83;;;3.00;99.90;;;;;;4951159;28;20050;-73
2023/03/15 03:14:52;;;;;;;9.52;1.80;;;3.00;99.90;;;;;;4971637;28;20045;-73
2023/03/15 03:17:17;;;;;;;13.07;2.13;;;3.10;99.90;;;;;;4982026;28;20070;-73
2023/03/15 03:19:43;;;;;;;12.43;2.22;;;3.10;99.90;;;;;;4986122;28;20136;-73
2023/03/15 03:22:12;;;;;;;10.52;1.80;;;3.00;99.90;;;;;;4955435;28;20491;-73
2023/03/15 03:24:38;;;;;;;10.77;2.55;;;3.10;99.90;;;;;;4981281;28;20051;-74
2023/03/15 03:27:04;;;;;;;15.45;2.08;;;3.10;99.90;;;;;;4961509;28;20178;-74
2023/03/15 03:29:30;;;;;;;18.48;2.60;;;3.10;99.90;;;;;;4965010;28;20125;-73
2023/03/15 03:31:55;;;;;;;9.75;1.95;;;3.10;99.90;;;;;;4971373;28;20523;-73
2023/03/15 03:34:21;;;;;;;13.07;2.40;;;3.10;99.90;;;;;;4961727;28;20051;-73
2023/03/15 03:36:49;;;;;;;10.98;1.70;;;3.10;99.90;;;;;;4982591;28;20114;-74
2023/03/15 03:39:15;;;;;;;;;;;3.10;99.90;;;;;;4980844;28;20934;-73
2023/03/15 03:41:41;;;;;;;8.95;1.90;;;3.10;99.90;;;;;;4968854;28;20000;-72
2023/03/15 03:44:06;;;;;;;8.43;1.50;;;3.10;99.90;;;;;;4952251;28;20363;-74
2023/03/15 03:46:32;;;;;;;15.25;2.90;;;3.10;99.90;;;;;;4984190;28;20054;-73
2023/03/15 03:48:58;;;;;;;16.42;2.58;;;3.00;99.90;;;;;;4951425;28;20638;-72
2023/03/15 03:51:23;;;;;;;10.10;1.83;;;3.00;99.90;;;;;;4974963;28;20042;-72
2023/03/15 03:53:49;;;;;;;7.10;1.80;;;3.00;99.90;;;;;;4971928;28;20046;-73
2023/03/15 03:56:15;;;;;;;7.50;1.90;;;3.00;99.90;;;;;;4960938;28;20070;-72
2023/03/15 03:58:41;;;;;;;10.63;2.67;;;3.00;99.90;;;;;;4954768;28;20043;-73
2023/03/15 04:01:06;;;;;;;8.82;2.28;;;2.90;99.90;;;;;;4949198;28;20078;-73
2023/03/15 04:03:32;;;;;;;14.00;2.45;;;3.00;99.90;;;;;;4987321;28;20053;-73
2023/03/15 04:05:58;;;;;;;9.70;1.85;;;3.10;99.90;;;;;;4952330;28;20474;-74
2023/03/15 04:08:24;;;;;;;16.20;2.55;;;3.00;99.90;;;;;;4987572;28;20475;-75
2023/03/15 04:10:54;;;;;;;12.60;2.10;;;2.90;99.90;;;;;;4975302;28;20042;-73
2023/03/15 04:13:20;;;;;;;7.13;2.03;;;2.90;99.90;;;;;;4958261;28;20130;-74
2023/03/15 04:15:46;;;;;;;13.95;2.10;;;2.90;99.90;;;;;;4941717;28;20130;-73
2023/03/15 04:18:12;;;;;;;10.95;1.92;;;2.90;99.90;;;;;;4964876;28;20042;-74
2023/03/15 04:20:38;;;;;;;14.95;2.15;;;2.90;99.90;;;;;;4956919;28;20744;-74
2023/03/15 04:23:06;;;;;;;15.25;2.38;;;2.90;99.90;;;;;;4966696;28;20182;-73
2023/03/15 04:25:31;;;;;;;15.18;2.53;;;2.90;99.90;;;;;;4981738;28;20113;-75
2023/03/15 04:27:57;;;;;;;10.45;2.90;;;3.00;99.90;;;;;;4980905;28;20720;-74
2023/03/15 04:30:27;;;;;;;13.20;2.80;;;3.00;99.90;;;;;;4954768;28;20062;-73
2023/03/15 04:32:59;;;;;;;12.77;3.03;;;2.90;99.90;;;;;;4938847;28;20120;-74
2023/03/15 04:35:28;;;;;;;12.52;2.25;;;2.90;99.90;;;;;;4942911;28;20470;-73
2023/03/15 04:37:55;;;;;;;10.73;2.58;;;2.80;99.90;;;;;;4948827;28;20045;-75
2023/03/15 04:40:22;;;;;;;11.73;2.95;;;2.90;99.90;;;;;;4979818;28;20054;-74
2023/03/15 04:42:54;;;;;;;16.20;3.78;;;2.80;99.90;;;;;;4961560;28;20050;-73
2023/03/15 04:45:23;;;;;;;13.10;3.72;;;2.80;99.90;;;;;;4964349;28;20125;-74
2023/03/15 04:47:52;;;;;;;12.35;3.83;;;2.80;99.90;;;;;;4973641;28;20126;-74
2023/03/15 04:50:18;;;;;;;12.45;4.80;;;2.70;99.90;;;;;;4957684;28;20047;-73
2023/03/15 04:52:44;;;;;;;19.15;4.72;;;2.70;99.90;;;;;;4964140;28;20049;-74
2023/03/15 04:55:11;;;;;;;17.85;4.63;;;2.80;99.90;;;;;;4958069;28;20043;-73
2023/03/15 04:57:36;;;;;;;10.02;4.60;;;2.70;99.90;;;;;;4979971;28;20046;-74
2023/03/15 05:00:06;;;;;;;15.70;5.07;;;2.70;99.90;;;;;;4944229;28;20063;-73
2023/03/15 05:02:32;;;;;;;12.82;5.18;;;2.70;99.90;;;;;;4950810;28;20051;-73
2023/03/15 05:04:58;;;;;;;16.67;5.68;;;2.80;99.90;;;;;;4981670;28;20053;-73
2023/03/15 05:07:24;;;;;;;12.68;6.30;;;2.70;99.90;;;;;;4954250;28;20054;-75
2023/03/15 05:09:50;;;;;;;13.63;6.15;;;2.70;99.90;;;;;;4949472;28;20078;-73
2023/03/15 05:12:15;;;;;;;17.00;5.78;;;2.80;99.90;;;;;;4956023;28;20039;-74
2023/03/15 05:14:41;;;;;;;10.13;5.78;;;2.80;99.90;;;;;;4974745;28;20043;-73
2023/03/15 05:17:07;;;;;;;13.35;5.57;;;2.80;99.90;;;;;;4947662;28;20050;-74
2023/03/15 05:19:33;;;;;;;12.73;5.80;;;2.80;99.90;;;;;;4967083;28;20126;-73
2023/03/15 05:22:02;;;;;;;18.35;6.57;;;2.70;99.90;;;;;;4978340;28;20125;-73
2023/03/15 05:24:28;;;;;;;13.68;5.88;;;2.80;99.90;;;;;;4953179;28;20046;-73
2023/03/15 05:26:54;;;;;;;12.57;5.65;;;2.70;99.90;;;;;;4969414;28;20077;-73
2023/03/15 05:29:21;;;;;;;12.55;6.35;;;2.70;99.90;;;;;;4969204;28;20151;-73
2023/03/15 05:31:47;;;;;;;17.48;7.18;;;2.70;99.90;;;;;;4956093;28;20596;-73
2023/03/15 05:34:13;;;;;;;14.75;7.85;;;2.70;99.90;;;;;;4950067;28;20459;-73
2023/03/15 05:36:40;;;;;;;11.30;6.35;;;2.70;99.90;;;;;;4966377;28;20046;-73
2023/03/15 05:39:07;;;;;;;12.32;6.65;;;2.70;99.90;;;;;;4981726;28;20059;-73
2023/03/15 05:41:33;;;;;;;19.83;7.15;;;2.70;99.90;;;;;;4964375;28;20376;-72
2023/03/15 05:43:59;;;;;;;17.50;6.63;;;2.80;99.90;;;;;;4979156;28;20052;-72
2023/03/15 05:46:25;;;;;;;18.30;7.68;;;2.70;99.90;;;;;;4982239;28;20042;-73
2023/03/15 05:48:52;;;;;;;16.20;6.57;;;2.70;99.90;;;;;;4961400;28;20144;-73
2023/03/15 05:51:18;;;;;;;14.77;6.95;;;2.80;99.90;;;;;;4941742;28;20042;-73
2023/03/15 05:53:44;;;;;;;15.65;7.30;;;2.80;99.90;;;;;;4962504;28;20053;-74
2023/03/15 05:56:10;;;;;;;15.45;7.82;;;2.70;99.90;;;;;;4984818;28;20042;-74
2023/03/15 05:58:35;;;;;;;15.63;6.82;;;2.70;99.90;;;;;;4978853;28;20213;-73
2023/03/15 06:01:02;;;;;;;14.50;6.38;;;2.60;99.90;;;;;;4964283;28;20502;-73
2023/03/15 06:03:30;;;;;;;10.98;6.05;;;2.70;99.90;;;;;;4948352;28;20489;-74
2023/03/15 06:05:56;;;;;;;14.57;6.33;;;2.70;99.90;;;;;;4975430;28;20440;-73
2023/03/15 06:08:22;;;;;;;18.15;6.95;;;2.70;99.90;;;;;;4968937;28;20208;-73
2023/03/15 06:10:48;;;;;;;12.18;6.32;;;2.70;99.90;;;;;;4966721;28;20771;-73
2023/03/15 06:13:14;;;;;;;9.70;5.82;;;2.90;99.90;;;;;;4985348;28;20094;-72
2023/03/15 06:15:40;;;;;;;13.40;5.60;;;2.90;99.90;;;;;;4985950;28;20486;-73
2023/03/15 06:18:07;;;;;;;17.85;6.43;;;2.90;99.90;;;;;;4949519;28;20553;-73
2023/03/15 06:20:33;;;;;;;10.30;5.93;;;2.90;99.90;;;;;;4984051;28;20054;-73
2023/03/15 06:22:58;;;;;;;10.88;5.53;;;2.90;99.90;;;;;;4967533;28;20483;-72
2023/03/15 06:25:24;;;;;;;12.23;5.65;;;2.90;99.90;;;;;;4980737;28;20055;-73
2023/03/15 06:27:50;;;;;;;11.27;5.90;;;2.90;99.90;;;;;;4967702;28;20053;-72
2023/03/15 06:30:16;;;;;;;16.50;5.85;;;2.90;99.90;;;;;;4984069;28;20057;-72
2023/03/15 06:32:42;;;;;;;10.13;6.43;;;2.90;99.90;;;;;;4983383;28;20058;-72
2023/03/15 06:35:07;;;;;;;14.35;5.90;;;2.90;99.90;;;;;;4979043;28;20071;-72
2023/03/15 06:37:35;;;;;;;12.65;5.72;;;2.90;99.90;;;;;;4961708;28;20372;-72
2023/03/15 06:40:05;;;;;;;9.57;4.97;;;2.90;99.90;;;;;;4956374;28;20272;-73
2023/03/15 06:42:30;;;;;;;10.52;5.55;;;3.00;99.90;;;;;;4981075;28;20069;-73
2023/03/15 06:44:56;;;;;;;13.00;5.10;;;3.00;99.90;;;;;;4963248;28;20471;-74
2023/03/15 06:47:22;;;;;;;9.82;5.10;;;2.90;99.90;;;;;;4961585;28;20093;-71
2023/03/15 06:49:51;;;;;;;11.45;4.90;;;2.90;99.90;;;;;;4974596;28;20093;-72
2023/03/15 06:52:17;;;;;;;12.00;6.03;;;3.00;99.90;;;;;;4976602;28;20042;-74
2023/03/15 06:54:43;;;;;;;11.88;5.40;;;3.00;99.90;;;;;;4978009;28;20050;-73
2023/03/15 06:57:09;;;;;;;11.40;5.13;;;3.10;99.90;;;;;;4964189;28;20043;-72
2023/03/15 06:59:35;;;;;;;9.35;4.28;;;3.00;99.90;;;;;;4969115;28;20058;-72
2023/03/15 07:02:00;;;;;;;8.95;4.53;;;3.10;99.90;;;;;;4978886;28;20046;-72
2023/03/15 07:04:26;;;;;;;12.48;4.70;;;3.00;99.90;;;;;;4955529;28;20093;-71
2023/03/15 07:06:52;;;;;;;14.48;4.85;;;3.20;99.90;;;;;;4951587;28;20062;-72
2023/03/15 07:09:18;;;;;;;9.80;4.28;;;3.10;99.90;;;;;;4964913;28;20125;-71
2023/03/15 07:11:46;;;;;;;12.35;4.72;;;3.20;99.90;;;;;;4946990;28;20047;-72
2023/03/15 07:14:11;;;;;;;8.70;4.28;;;3.20;99.90;;;;;;4961280;28;20126;-72
2023/03/15 07:16:37;;;;;;;8.88;4.85;;;3.30;99.90;;;;;;4981256;28;20125;-72
2023/03/15 07:19:03;;;;;;;7.80;4.03;;;3.20;99.90;;;;;;4974223;28;20530;-72
2023/03/15 07:21:29;;;;;;;8.80;4.20;;;3.20;99.90;;;;;;4966862;28;20054;-73
2023/03/15 07:23:54;;;;;;;10.20;4.15;;;3.20;99.90;;;;;;4971969;28;20073;-73
2023/03/15 07:26:20;;;;;;;10.60;4.57;;;3.20;99.90;;;;;;4965373;28;20153;-72
2023/03/15 07:28:46;;;;;;;9.60;4.05;;;3.10;99.90;;;;;;4961615;28;20058;-74
2023/03/15 07:31:12;;;;;;;7.97;4.20;;;3.20;99.90;;;;;;4952589;28;20431;-73
2023/03/15 07:33:38;;;;;;;11.10;3.92;;;3.20;99.90;;;;;;4966429;28;20059;-74
2023/03/15 07:36:05;;;;;;;14.52;5.47;;;3.30;99.90;;;;;;4953802;28;20062;-72
2023/03/15 07:38:32;;;;;;;8.27;4.05;;;3.20;99.90;;;;;;4931726;28;20057;-74
2023/03/15 07:41:00;;;;;;;10.13;4.45;;;3.30;99.90;;;;;;4936232;28;20047;-72
2023/03/15 07:43:26;;;;;;;;;;;3.30;99.90;;;;;;4949405;28;20046;-72
2023/03/15 07:45:51;;;;;;;12.20;4.10;;;3.40;99.90;;;;;;4968872;28;19913;-71
2023/03/15 07:48:17;;;;;;;10.80;3.95;;;3.50;99.90;;;;;;4964465;28;20046;-73
2023/03/15 07:50:44;;;;;;;9.35;3.85;;;3.60;99.90;;;;;;4984788;28;20377;-73
2023/03/15 07:53:10;;;;;;;10.20;4.47;;;3.50;99.90;;;;;;4948723;28;20622;-72
2023/03/15 07:55:35;;;;;;;10.68;4.25;;;3.60;99.90;;;;;;4969931;28;20129;-72
2023/03/15 07:58:01;;;;;;;9.10;4.18;;;3.50;99.90;;;;;;4980777;28;20046;-72
2023/03/15 08:00:27;;;;;;;9.40;4.18;;;3.60;99.90;;;;;;4987131;28;20039;-72
2023/03/15 08:02:53;;;;;;;9.30;3.67;;;3.60;99.90;;;;;;4957890;28;20375;-73
2023/03/15 08:05:19;;;;;;;11.00;4.03;;;3.60;99.90;;;;;;4971064;28;20050;-72
2023/03/15 08:07:45;;;;;;;9.10;4.25;;;3.70;99.90;;;;;;4985106;28;20050;-72
2023/03/15 08:10:12;;;;;;;7.53;4.78;;;3.70;99.90;;;;;;4993257;28;20065;-72
2023/03/15 08:12:39;;;;;;;9.35;4.57;;;3.80;99.90;;;;;;4959516;28;20537;-73
2023/03/15 08:15:05;;;;;;;9.77;4.80;;;3.90;99.90;;;;;;4981145;28;20043;-72
2023/03/15 08:17:31;;;;;;;12.75;4.70;;;3.90;99.90;;;;;;4966115;28;20043;-72
2023/03/15 08:19:57;;;;;;;10.40;4.18;;;4.00;99.90;;;;;;4981705;28;20172;-72
2023/03/15 08:22:22;;;;;;;9.70;4.40;;;4.00;99.90;;;;;;4934383;28;20135;-73
2023/03/15 08:24:52;;;;;;;15.63;5.18;;;3.90;99.90;;;;;;4975734;28;20121;-71
2023/03/15 08:27:18;;;;;;;11.48;4.82;;;3.80;99.90;;;;;;4955074;28;20046;-71
2023/03/15 08:29:44;;;;;;;12.80;4.22;;;3.80;99.90;;;;;;4946838;28;20051;-73
2023/03/15 08:32:11;;;;;;;10.70;4.50;;;3.90;99.90;;;;;;4984173;28;20692;-71
2023/03/15 08:34:37;;;;;;;10.10;4.50;;;3.90;99.90;;;;;;4965560;28;20668;-71
2023/03/15 08:37:03;;;;;;;11.60;4.57;;;4.10;99.90;;;;;;4971918;28;20042;-72
2023/03/15 08:39:29;;;;;;;8.27;4.05;;;4.10;99.90;;;;;;4947228;28;20050;-71
2023/03/15 08:41:55;;;;;;;9.93;4.05;;;3.90;99.90;;;;;;4947691;28;20050;-72
2023/03/15 08:44:20;;;;;;;11.68;4.47;;;4.10;99.90;;;;;;4966828;28;20054;-72
2023/03/15 08:46:46;;;;;;;8.00;4.28;;;4.20;99.90;;;;;;4945419;28;20348;-73
2023/03/15 08:49:12;;;;;;;8.32;4.70;;;4.40;99.90;;;;;;4986000;28;20065;-71
2023/03/15 08:51:37;;;;;;;8.13;4.15;;;4.50;99.90;;;;;;4981035;28;20046;-72
2023/03/15 08:54:04;;;;;;;13.20;6.03;;;4.30;99.90;;;;;;4982222;28;20046;-73
2023/03/15 08:56:31;;;;;;;10.50;5.50;;;4.20;99.90;;;;;;4954214;28;20097;-72
2023/03/15 08:58:57;;;;;;;14.68;5.40;;;4.20;99.90;;;;;;4979371;28;20498;-71
2023/03/15 09:01:22;;;;;;;11.52;5.25;;;4.40;99.90;;;;;;4972639;28;20055;-72
2023/03/15 09:03:49;;;;;;;11.30;5.70;;;4.50;99.90;;;;;;4963686;28;20057;-71
2023/03/15 09:06:15;;;;;;;7.63;3.70;;;4.60;99.90;;;;;;4974705;28;20126;-73
2023/03/15 09:08:41;;;;;;;8.57;4.60;;;4.40;99.90;;;;;;4979433;28;20125;-73
2023/03/15 09:11:06;;;;;;;14.32;4.97;;;4.20;99.90;;;;;;4967610;28;20450;-72
2023/03/15 09:13:32;;;;;;;13.13;5.15;;;4.10;99.90;;;;;;4943248;28;20047;-71
2023/03/15 09:15:58;;;;;;;11.70;4.55;;;4.30;99.90;;;;;;4992401;28;20053;-74
2023/03/15 09:18:24;;;;;;;7.85;3.60;;;4.60;99.90;;;;;;4953350;28;20042;-71
2023/03/15 09:20:50;;;;;;;8.88;3.25;;;4.50;99.90;;;;;;4968704;28;20631;-72
2023/03/15 09:23:16;;;;;;;11.35;4.00;;;4.70;99.90;;;;;;4947319;28;20050;-71
2023/03/15 09:25:42;;;;;;;14.20;4.90;;;4.50;99.90;;;;;;4970772;28;20058;-71
2023/03/15 09:28:09;;;;;;;10.35;4.65;;;4.50;99.90;;;;;;4973721;28;20057;-72
2023/03/15 09:30:35;;;;;;;19.15;5.50;;;4.50;99.90;;;;;;4965327;28;20078;-74
2023/03/15 09:33:01;;;;;;;10.40;4.88;;;4.80;99.90;;;;;;4974569;28;20740;-73
2023/03/15 09:35:27;;;;;;;14.25;3.95;;;5.00;99.90;;;;;;4968408;28;20136;-74
2023/03/15 09:37:53;;;;;;;7.88;3.47;;;4.80;99.90;;;;;;4947852;28;20050;-73
2023/03/15 09:40:27;;;;;;;9.10;3.97;;;4.70;99.90;;;;;;4937824;28;20140;-72
2023/03/15 09:42:59;;;;;;;12.38;3.53;;;5.00;99.90;;;;;;4949744;28;20061;-73
2023/03/15 09:45:31;;;;;;;11.73;3.30;;;5.30;99.90;;;;;;4972323;28;20050;-73
2023/03/15 09:48:15;;;;;;;15.10;3.90;;;5.40;99.90;;;;;;4984665;28;20046;-73
2023/03/15 09:50:55;;;;;;;11.05;3.70;;;5.30;99.90;;;;;;4967409;28;20112;-73
2023/03/15 09:53:27;;;;;;;9.63;3.53;;;5.30;99.90;;;;;;4978933;28;20821;-73
2023/03/15 09:55:53;;;;;;;12.32;4.03;;;5.60;99.90;;;;;;4963217;28;20121;-73
2023/03/15 09:58:22;;;;;;;9.77;4.53;;;5.40;99.90;;;;;;4961885;28;20046;-72
2023/03/15 10:00:59;;;;;;;12.80;3.30;;;5.40;99.90;;;;;;4944141;28;20120;-74
2023/03/15 10:03:39;;;;;;;9.13;2.87;;;5.60;99.90;;;;;;4979928;28;20038;-74
2023/03/15 10:06:11;;;;;;;9.20;2.80;;;5.50;99.90;;;;;;4985973;28;20045;-72
2023/03/15 10:08:37;;;;;;;10.65;2.92;;;5.60;99.90;;;;;;4962828;28;20745;-73
2023/03/15 10:11:05;;;;;;;8.27;2.85;;;6.00;99.90;;;;;;4958872;28;20101;-73
2023/03/15 10:14:05;;;;;;;13.25;3.13;;;6.10;99.90;;;;;;4964166;28;20058;-74
2023/03/15 10:16:39;;;;;;;8.32;2.45;;;6.00;99.90;;;;;;4971696;28;20050;-74
2023/03/15 10:19:22;;;;;;;14.93;2.63;;;6.00;99.90;;;;;;4975031;28;20138;-74
2023/03/15 10:21:55;;;;;;;6.30;3.13;;;5.90;99.90;;;;;;4970400;28;20047;-74
2023/03/15 10:24:33;;;;;;;10.68;3.00;;;6.10;99.90;;;;;;4984493;28;20491;-74
2023/03/15 10:27:01;;;;;;;13.25;2.83;;;6.20;99.90;;;;;;4958212;28;20054;-72
2023/03/15 10:29:27;;;;;;;9.75;2.42;;;6.50;99.90;;;;;;4940918;28;20078;-73
2023/03/15 10:31:53;;;;;;;12.13;2.53;;;6.50;98.70;;;;;;4954901;28;20085;-72
2023/03/15 10:34:19;;;;;;;8.13;2.30;;;6.80;97.10;;;;;;4971766;28;20078;-72
2023/03/15 10:36:48;;;;;;;10.27;2.53;;;6.80;95.70;;;;;;4965928;28;20046;-72
2023/03/15 10:39:14;;;;;;;13.77;2.33;;;6.90;95.40;;;;;;4980261;28;20047;-72
2023/03/15 10:41:44;;;;;;;10.77;2.85;;;6.90;93.20;;;;;;4978132;28;20050;-73
2023/03/15 10:44:35;;;;;;;14.68;3.35;;;7.00;91.70;;;;;;4941355;28;20056;-72
2023/03/15 10:47:06;;;;;;;7.30;2.50;;;7.20;93.90;;;;;;4977819;28;20357;-72
2023/03/15 10:49:36;;;;;;;7.78;1.95;;;7.20;94.10;;;;;;4952660;28;20050;-72
2023/03/15 10:52:02;;;;;;;7.53;2.42;;;7.20;91.10;;;;;;4955033;28;20042;-72
2023/03/15 10:54:27;;;;;;;12.85;2.95;;;7.10;93.20;;;;;;4985762;28;20116;-72
2023/03/15 10:57:13;;;;;;;7.47;1.50;;;6.80;91.60;;;;;;4950392;28;20047;-72
2023/03/15 10:59:59;;;;;;;18.02;2.28;;;6.50;87.50;;;;;;4958522;28;20058;-71
2023/03/15 11:02:24;;;;;;;7.38;2.10;;;6.40;88.80;;;;;;4946986;28;20050;-72
2023/03/15 11:05:21;;;;;;;8.40;1.50;;;6.30;93.00;;;;;;4958799;28;20113;-73
2023/03/15 11:07:58;;;;;;;9.70;1.77;;;6.80;93.60;;;;;;4971281;28;20050;-72
2023/03/15 11:10:28;;;;;;;8.95;1.70;;;7.50;89.00;;;;;;4955434;28;20050;-73
2023/03/15 11:13:16;;;;;;;9.88;2.22;;;8.30;87.60;;;;;;4945760;28;20050;-72
2023/03/15 11:15:48;;;;;;;10.52;1.70;;;10.60;72.30;;;;;;4968356;28;20181;-72
2023/03/15 11:18:18;;;;;;;6.60;1.60;;;13.40;58.90;;;;;;4938903;28;20057;-73
2023/03/15 11:20:44;;;;;;;7.47;1.60;;;13.50;54.00;;;;;;4988102;28;20382;-72
2023/03/15 11:23:27;;;;;;;5.28;1.20;;;14.50;51.20;;;;;;4961394;28;20085;-72
2023/03/15 11:25:53;;;;;;;8.32;1.75;;;12.30;51.70;;;;;;4945231;28;20050;-73
2023/03/15 11:28:22;;;;;;;6.00;1.58;;;15.10;47.80;;;;;;4949445;28;20046;-73
2023/03/15 11:30:48;;;;;;;9.32;1.58;;;11.00;57.10;;;;;;4987212;28;20054;-72
2023/03/15 11:33:35;;;;;;;5.82;1.50;;;8.80;67.20;;;;;;4943879;28;20331;-73
2023/03/15 11:36:02;;;;;;;9.75;2.33;;;13.40;53.30;;;;;;4982375;28;20114;-73
2023/03/15 11:38:36;;;;;;;8.88;1.80;;;13.60;49.80;;;;;;4945711;28;20708;-73
2023/03/15 11:41:10;;;;;;;8.23;1.60;;;12.10;49.50;;;;;;4965049;28;20053;-75
2023/03/15 11:43:55;;;;;;;8.27;2.10;;;11.10;52.20;;;;;;4983409;28;20435;-74
2023/03/15 11:46:26;;;;;;;4.72;1.55;;;9.50;57.10;;;;;;4985194;28;20125;-73
2023/03/15 11:48:57;;;;;;;6.65;1.40;;;8.40;57.40;;;;;;4964894;28;20050;-74
2023/03/15 11:51:23;;;;;;;6.25;1.08;;;8.20;56.30;;;;;;4981115;28;20047;-72
2023/03/15 11:54:12;;;;;;;5.15;1.55;;;8.50;58.10;;;;;;4990908;28;20362;-74
2023/03/15 11:56:54;;;;;;;5.25;1.35;;;9.20;57.90;;;;;;4962390;28;20117;-73
2023/03/15 11:59:28;;;;;;;6.35;1.10;;;8.80;57.10;;;;;;4988370;28;20061;-74
2023/03/15 12:02:08;;;;;;;3.90;1.00;;;8.70;55.80;;;;;;4969156;28;20041;-74
2023/03/15 12:04:34;;;;;;;10.05;1.40;;;8.50;54.50;;;;;;4984817;28;20054;-73
2023/03/15 12:07:02;;;;;;;4.35;0.90;;;8.40;51.10;;;;;;4980980;28;20538;-73
2023/03/15 12:09:31;;;;;;;5.73;1.10;;;8.60;53.50;;;;;;4970008;28;20480;-72
2023/03/15 12:12:22;;;;;;;4.35;1.30;;;8.80;54.20;;;;;;4981493;28;20046;-73
2023/03/15 12:14:48;;;;;;;6.95;1.27;;;8.80;53.60;;;;;;4986563;28;20172;-72
2023/03/15 12:17:26;;;;;;;6.32;1.00;;;8.10;61.10;;;;;;4980288;28;20056;-72
2023/03/15 12:20:11;;;;;;;4.28;1.15;;;8.70;67.20;;;;;;4984530;28;20050;-72
2023/03/15 12:22:45;;;;;;;4.25;1.00;;;9.10;64.20;;;;;;4983567;28;20047;-72
2023/03/15 12:25:17;;;;;;;4.50;0.85;;;9.50;61.10;;;;;;4966520;28;20514;-73
2023/03/15 12:27:49;;;;;;;4.72;1.15;;;9.60;59.50;;;;;;4950399;28;20194;-73
2023/03/15 12:30:46;;;;;;;4.53;0.95;;;9.70;56.30;;;;;;4954379;28;20108;-72
2023/03/15 12:33:21;;;;;;;3.45;1.20;;;10.10;57.00;;;;;;4963498;28;20058;-72
2023/03/15 12:35:47;;;;;;;3.85;1.25;;;10.60;54.10;;;;;;4969522;28;20057;-72
2023/03/15 12:38:21;;;;;;;6.22;1.80;;;12.40;46.10;;;;;;4946739;28;20070;-74
2023/03/15 12:40:48;;;;;;;4.00;1.40;;;12.50;47.10;;;;;;4971058;28;20109;-73
2023/03/15 12:43:14;;;;;;;5.57;1.60;;;11.10;49.50;;;;;;4964724;28;20058;-72
2023/03/15 12:45:42;;;;;;;6.40;1.38;;;10.40;49.60;;;;;;4985622;28;20277;-72
2023/03/15 12:48:11;;;;;;;7.47;1.33;;;9.80;52.50;;;;;;4969840;28;20748;-72
2023/03/15 12:51:09;;;;;;;5.97;1.75;;;9.70;48.90;;;;;;4973807;28;20050;-72
2023/03/15 12:53:38;;;;;;;10.48;9.38;;;11.40;47.40;;;;;;4989560;28;20042;-72
2023/03/15 12:56:17;;;;;;;3.80;1.27;;;13.20;42.80;;;;;;4967216;28;20471;-73